| time (UTC) | temp C | wind direction | speed KPH | gust KPH | rain 1hr cm | rain 24hr cm | rain mn cm | humidity % | barometer mb |
| 20260906220110 | 30 | 203 | 19.3 | 29.0 | 0.00 | 0.00 | 0.00 | 15 | 1014.2 |
| 20260906214617 | 31 | 202 | 20.9 | 32.2 | 0.00 | 0.00 | 0.00 | 16 | 1014.3 |
| 20260906213111 | 30 | 360 | 22.5 | 32.2 | 0.00 | 0.00 | 0.00 | 17 | 1014.4 |
| 20260906211606 | 31 | 360 | 14.5 | 27.4 | 0.00 | 0.00 | 0.00 | 18 | 1014.3 |
| 20260906210105 | 31 | 193 | 19.3 | 32.2 | 0.00 | 0.00 | 0.00 | 17 | 1014.5 |
| 20260906204616 | 31 | 198 | 19.3 | 32.2 | 0.00 | 0.00 | 0.00 | 19 | 1015.0 |
| 20260906203106 | 31 | 190 | 22.5 | 33.8 | 0.00 | 0.00 | 0.00 | 19 | 1015.4 |
| 20260906201607 | 31 | 182 | 19.3 | 33.8 | 0.00 | 0.00 | 0.00 | 18 | 1015.4 |
| 20260906200106 | 31 | 198 | 25.7 | 38.6 | 0.00 | 0.00 | 0.00 | 17 | 1015.7 |
| 20260906194603 | 31 | 360 | 24.1 | 32.2 | 0.00 | 0.00 | 0.00 | 17 | 1015.5 |
| 20260906193107 | 31 | 360 | 20.9 | 41.8 | 0.00 | 0.00 | 0.00 | 19 | 1015.6 |
| 20260906191613 | 30 | 181 | 14.5 | 30.6 | 0.00 | 0.00 | 0.00 | 17 | 1015.8 |
| 20260906190104 | 31 | 192 | 20.9 | 37.0 | 0.00 | 0.00 | 0.00 | 20 | 1016.1 |
| 20260906184606 | 30 | 360 | 22.5 | 38.6 | 0.00 | 0.00 | 0.00 | 19 | 1016.1 |
| 20260906183108 | 30 | 175 | 14.5 | 27.4 | 0.00 | 0.00 | 0.00 | 18 | 1016.5 |
| 20260906181613 | 30 | 360 | 16.1 | 29.0 | 0.00 | 0.00 | 0.00 | 20 | 1016.8 |
| 20260906180116 | 29 | 276 | 20.9 | 30.6 | 0.00 | 0.00 | 0.00 | 21 | 1017.2 |
| 20260906174607 | 29 | 360 | 17.7 | 30.6 | 0.00 | 0.00 | 0.00 | 23 | 1017.4 |
| 20260906173107 | 28 | 360 | 22.5 | 35.4 | 0.00 | 0.00 | 0.00 | 23 | 1017.5 |
| 20260906171607 | 28 | 360 | 20.9 | 30.6 | 0.00 | 0.00 | 0.00 | 23 | 1017.7 |
| 20260906170110 | 27 | 194 | 20.9 | 29.0 | 0.00 | 0.00 | 0.00 | 26 | 1017.9 |
| 20260906164607 | 27 | 360 | 19.3 | 29.0 | 0.00 | 0.00 | 0.00 | 27 | 1018.0 |
| 20260906163124 | 26 | 360 | 20.9 | 29.0 | 0.00 | 0.00 | 0.00 | 30 | 1018.1 |
| 20260906161621 | 25 | 360 | 19.3 | 27.4 | 0.00 | 0.00 | 0.00 | 33 | 1018.2 |
| 20260906160113 | 25 | 194 | 19.3 | 25.7 | 0.00 | 0.00 | 0.00 | 35 | 1018.2 |
| 20260906154607 | 23 | 196 | 12.9 | 20.9 | 0.00 | 0.00 | 0.00 | 40 | 1018.5 |
| 20260906153122 | 23 | 360 | 12.9 | 19.3 | 0.00 | 0.00 | 0.00 | 42 | 1018.5 |
| 20260906151611 | 22 | 360 | 11.3 | 19.3 | 0.00 | 0.00 | 0.00 | 45 | 1018.4 |
| 20260906150110 | 20 | 346 | 0.0 | 4.8 | 0.00 | 0.00 | 0.00 | 51 | 1018.6 |
| 20260906144605 | 19 | 0 | 1.6 | 4.8 | 0.00 | 0.00 | 0.00 | 52 | 1018.6 |
| 20260906143106 | 17 | 0 | 0.0 | 3.2 | 0.00 | 0.00 | 0.00 | 60 | 1018.6 |
| 20260906141604 | 16 | 0 | 0.0 | 1.6 | 0.00 | 0.00 | 0.00 | 63 | 1018.6 |
| 20260906140108 | 14 | 347 | 1.6 | 6.4 | 0.00 | 0.00 | 0.00 | 67 | 1018.6 |
| 20260906134607 | 12 | 347 | 1.6 | 4.8 | 0.00 | 0.00 | 0.00 | 67 | 1018.7 |
| 20260906133127 | 11 | 0 | 0.0 | 3.2 | 0.00 | 0.00 | 0.00 | 72 | 1018.5 |
| 20260906131617 | 10 | 0 | 0.0 | 3.2 | 0.00 | 0.00 | 0.00 | 75 | 1018.4 |
| 20260906130113 | 10 | 347 | 1.6 | 4.8 | 0.00 | 0.00 | 0.00 | 72 | 1018.3 |
| 20260906124604 | 10 | 0 | 0.0 | 4.8 | 0.00 | 0.00 | 0.00 | 72 | 1018.3 |
| 20260906123107 | 9 | 347 | 1.6 | 6.4 | 0.00 | 0.00 | 0.00 | 74 | 1018.3 |
| 20260906121606 | 10 | 0 | 0.0 | 0.0 | 0.00 | 0.00 | 0.00 | 72 | 1018.4 |
| 20260906120110 | 10 | 0 | 0.0 | 1.6 | 0.00 | 0.00 | 0.00 | 71 | 1018.4 |
| 20260906114604 | 10 | 0 | 0.0 | 1.6 | 0.00 | 0.00 | 0.00 | 69 | 1018.3 |
| 20260906113105 | 11 | 0 | 0.0 | 3.2 | 0.00 | 0.00 | 0.00 | 68 | 1018.4 |
| 20260906111606 | 11 | 0 | 3.2 | 6.4 | 0.00 | 0.00 | 0.00 | 65 | 1018.3 |
| 20260906110108 | 12 | 0 | 0.0 | 8.0 | 0.00 | 0.00 | 0.00 | 62 | 1018.4 |
| 20260906104611 | 13 | 349 | 1.6 | 8.0 | 0.00 | 0.00 | 0.00 | 59 | 1018.3 |
| 20260906103107 | 13 | 355 | 1.6 | 9.7 | 0.00 | 0.00 | 0.00 | 59 | 1018.3 |
| 20260906101605 | 13 | 351 | 1.6 | 6.4 | 0.00 | 0.00 | 0.00 | 58 | 1018.3 |
| 20260906100112 | 14 | 351 | 3.2 | 8.0 | 0.00 | 0.00 | 0.00 | 58 | 1018.0 |
| 20260906094619 | 14 | 344 | 1.6 | 9.7 | 0.00 | 0.00 | 0.00 | 57 | 1018.0 |
| 20260906093110 | 15 | 340 | 3.2 | 8.0 | 0.00 | 0.00 | 0.00 | 56 | 1018.0 |
| 20260906091607 | 14 | 0 | 1.6 | 6.4 | 0.00 | 0.00 | 0.00 | 57 | 1018.0 |
| 20260906090120 | 14 | 0 | 1.6 | 4.8 | 0.00 | 0.00 | 0.00 | 56 | 1017.9 |
| 20260906084606 | 14 | 344 | 0.0 | 4.8 | 0.00 | 0.00 | 0.00 | 57 | 1017.9 |
| 20260906083105 | 14 | 344 | 1.6 | 6.4 | 0.00 | 0.00 | 0.00 | 58 | 1018.0 |
| 20260906081604 | 15 | 344 | 3.2 | 6.4 | 0.00 | 0.00 | 0.00 | 55 | 1017.8 |
| 20260906080105 | 15 | 342 | 0.0 | 6.4 | 0.00 | 0.00 | 0.00 | 54 | 1017.9 |
| 20260906074602 | 16 | 345 | 6.4 | 12.9 | 0.00 | 0.00 | 0.00 | 51 | 1017.9 |
| 20260906073105 | 16 | 355 | 8.0 | 14.5 | 0.00 | 0.00 | 0.00 | 52 | 1017.9 |
| 20260906071605 | 14 | 355 | 3.2 | 8.0 | 0.00 | 0.00 | 0.00 | 59 | 1017.8 |
| 20260906070107 | 14 | 0 | 0.0 | 3.2 | 0.00 | 0.00 | 0.00 | 58 | 1018.0 |
| 20260906064611 | 16 | 0 | 3.2 | 12.9 | 0.00 | 0.00 | 0.00 | 51 | 1017.7 |
| 20260906063107 | 16 | 340 | 4.8 | 9.7 | 0.00 | 0.00 | 0.00 | 52 | 1017.7 |
| 20260906061607 | 16 | 342 | 4.8 | 9.7 | 0.00 | 0.00 | 0.00 | 51 | 1017.8 |
| 20260906060108 | 16 | 344 | 4.8 | 6.4 | 0.00 | 0.00 | 0.00 | 53 | 1017.6 |
| 20260906054605 | 17 | 0 | 1.6 | 12.9 | 0.00 | 0.00 | 0.00 | 49 | 1017.6 |
| 20260906053106 | 16 | 355 | 6.4 | 14.5 | 0.00 | 0.00 | 0.00 | 51 | 1017.5 |
| 20260906051605 | 17 | 352 | 9.7 | 16.1 | 0.00 | 0.00 | 0.00 | 49 | 1017.5 |
| 20260906050107 | 17 | 350 | 8.0 | 16.1 | 0.00 | 0.00 | 0.00 | 48 | 1017.6 |
| 20260906044603 | 18 | 355 | 8.0 | 14.5 | 0.00 | 0.00 | 0.00 | 45 | 1017.5 |
| 20260906043104 | 17 | 350 | 4.8 | 9.7 | 0.00 | 0.00 | 0.00 | 47 | 1017.6 |
| 20260906041608 | 18 | 350 | 8.0 | 12.9 | 0.00 | 0.00 | 0.00 | 45 | 1017.5 |
| 20260906040106 | 20 | 344 | 6.4 | 24.1 | 0.00 | 0.00 | 0.00 | 40 | 1017.5 |
| 20260906034602 | 20 | 360 | 3.2 | 6.4 | 0.00 | 0.00 | 0.00 | 38 | 1017.6 |
| 20260906033107 | 20 | 360 | 1.6 | 6.4 | 0.00 | 0.00 | 0.00 | 38 | 1017.5 |
| 20260906031604 | 20 | 360 | 3.2 | 6.4 | 0.00 | 0.00 | 0.00 | 40 | 1017.5 |
| 20260906024608 | 22 | 0 | 0.0 | 0.0 | 0.00 | 0.00 | 0.00 | 31 | 1017.2 |
| 20260906023103 | 23 | 0 | 0.0 | 0.0 | 0.00 | 0.00 | 0.00 | 31 | 1017.0 |
| 20260906021607 | 23 | 0 | 0.0 | 0.0 | 0.00 | 0.00 | 0.00 | 30 | 1017.0 |
| 20260906020110 | 23 | 0 | 0.0 | 4.8 | 0.00 | 0.00 | 0.00 | 30 | 1016.9 |
| 20260906014616 | 24 | 360 | 0.0 | 4.8 | 0.00 | 0.00 | 0.00 | 31 | 1016.6 |
| 20260906013108 | 25 | 250 | 3.2 | 8.0 | 0.00 | 0.00 | 0.00 | 31 | 1016.5 |
| 20260906011619 | 26 | 360 | 4.8 | 8.0 | 0.00 | 0.00 | 0.00 | 29 | 1016.5 |
| 20260906010105 | 27 | 360 | 8.0 | 17.7 | 0.00 | 0.00 | 0.00 | 26 | 1016.5 |
| 20260906004612 | 28 | 360 | 8.0 | 17.7 | 0.00 | 0.00 | 0.00 | 26 | 1016.4 |
| 20260906003113 | 29 | 360 | 9.7 | 24.1 | 0.00 | 0.00 | 0.00 | 24 | 1016.3 |
| 20260906001605 | 30 | 360 | 16.1 | 24.1 | 0.00 | 0.00 | 0.00 | 23 | 1016.2 |
| 20260906000108 | 30 | 360 | 20.9 | 29.0 | 0.00 | 0.00 | 0.00 | 24 | 1016.3 |
| 20260905234606 | 31 | 360 | 17.7 | 25.7 | 0.00 | 0.00 | 0.00 | 23 | 1016.2 |
| 20260905233136 | 31 | 360 | 12.9 | 24.1 | 0.00 | 0.00 | 0.00 | 24 | 1016.1 |
| 20260905231610 | 31 | 183 | 14.5 | 22.5 | 0.00 | 0.00 | 0.00 | 24 | 1016.1 |
| 20260905230108 | 31 | 360 | 19.3 | 27.4 | 0.00 | 0.00 | 0.00 | 23 | 1016.1 |
| 20260905224623 | 30 | 182 | 16.1 | 40.2 | 0.00 | 0.00 | 0.00 | 23 | 1016.2 |
| 20260905223108 | 31 | 360 | 4.8 | 30.6 | 0.00 | 0.00 | 0.00 | 25 | 1016.3 |
| 20260905221608 | 31 | 360 | 14.5 | 22.5 | 0.00 | 0.00 | 0.00 | 22 | 1016.4 |